REBEL1 EFKU-ZZZZ

Flight info

Callsign REBEL1
Flight time N/A
Altitude 5000
Route LAIVO TERVO
Aircraft HAWK/M-SDGIRY/C

Departure

Time 2026-04-17 18:23
Airport Kuopio Airport (EFKU)

Arrival

Time N/A
Airport ZZZZ
Time Latitude Longitude Altitude Speed Heading
2026-04-17 18:12 63.00361 27.79099 315 ft 0 kts 68°
2026-04-17 18:16 63.00362 27.79100 315 ft 0 kts 68°
2026-04-17 18:17 63.00361 27.79100 315 ft 0 kts 68°
2026-04-17 18:18 63.00363 27.79109 315 ft 3 kts 70°
2026-04-17 18:18 63.00355 27.79154 315 ft 3 kts 154°
2026-04-17 18:18 63.00328 27.79179 314 ft 7 kts 157°
2026-04-17 18:19 63.00282 27.79222 313 ft 7 kts 157°
2026-04-17 18:19 63.00235 27.79266 312 ft 7 kts 155°
2026-04-17 18:19 63.00202 27.79307 313 ft 4 kts 128°
2026-04-17 18:19 63.00203 27.79375 312 ft 10 kts 68°
2026-04-17 18:20 63.00234 27.79569 309 ft 15 kts 94°
2026-04-17 18:20 63.00191 27.79755 310 ft 12 kts 128°
2026-04-17 18:20 63.00144 27.79847 313 ft 6 kts 156°
2026-04-17 18:20 63.00113 27.79877 314 ft 9 kts 156°
2026-04-17 18:21 63.00072 27.79916 316 ft 0 kts 157°
2026-04-17 18:21 63.00056 27.79930 316 ft 10 kts 158°
2026-04-17 18:21 62.99970 27.80010 318 ft 18 kts 156°
2026-04-17 18:21 62.99841 27.80130 319 ft 19 kts 158°
2026-04-17 18:22 62.99734 27.80230 323 ft 14 kts 154°
2026-04-17 18:22 62.99689 27.80377 323 ft 11 kts 100°
2026-04-17 18:22 62.99708 27.80528 321 ft 10 kts 50°
2026-04-17 18:22 62.99766 27.80596 319 ft 9 kts 17°
2026-04-17 18:23 62.99831 27.80583 317 ft 20 kts 341°
2026-04-17 18:23 63.00244 27.80213 306 ft 113 kts 338°
2026-04-17 18:23 63.01234 27.79300 586 ft 191 kts 339°
2026-04-17 18:23 63.02431 27.77402 1499 ft 209 kts 299°
2026-04-17 18:24 63.02663 27.74544 1935 ft 181 kts 275°
2026-04-17 18:24 63.02479 27.71593 1931 ft 220 kts 249°
2026-04-17 18:24 63.01705 27.68536 2275 ft 227 kts 236°
2026-04-17 18:24 63.00886 27.65517 2544 ft 247 kts 242°
2026-04-17 18:25 63.00012 27.62142 2851 ft 262 kts 242°
2026-04-17 18:25 62.99098 27.58556 3297 ft 271 kts 243°
2026-04-17 18:25 62.98205 27.54820 3686 ft 284 kts 244°
2026-04-17 18:25 62.97292 27.50974 3797 ft 273 kts 244°
2026-04-17 18:26 62.96430 27.47433 4210 ft 263 kts 243°
2026-04-17 18:26 62.95503 27.43793 4566 ft 274 kts 241°
2026-04-17 18:26 62.94507 27.40157 4836 ft 284 kts 240°
2026-04-17 18:26 62.93468 27.36354 5027 ft 296 kts 240°
2026-04-17 18:27 62.92441 27.32306 5090 ft 312 kts 247°
2026-04-17 18:27 62.91593 27.27780 5107 ft 328 kts 250°
2026-04-17 18:27 62.90798 27.23089 5102 ft 300 kts 251°
2026-04-17 18:27 62.90132 27.19081 5095 ft 272 kts 252°
2026-04-17 18:28 62.89511 27.15297 5104 ft 262 kts 252°
2026-04-17 18:28 62.88903 27.11595 5111 ft 254 kts 252°
2026-04-17 18:28 62.88316 27.08013 5116 ft 246 kts 252°
2026-04-17 18:28 62.87967 27.04460 5116 ft 233 kts 279°
2026-04-17 18:29 62.88627 27.01463 5133 ft 214 kts 323°
2026-04-17 18:29 62.89847 26.99778 5122 ft 206 kts 327°
2026-04-17 18:29 62.90830 26.97504 5121 ft 203 kts 313°
2026-04-17 18:29 62.91699 26.95105 5120 ft 205 kts 311°
2026-04-17 18:30 62.92588 26.92611 5116 ft 205 kts 312°
2026-04-17 18:30 62.93442 26.90214 5112 ft 197 kts 309°
2026-04-17 18:30 62.93093 26.86823 2509 ft 299 kts 271°
2026-04-17 18:30 62.94184 26.85538 1325 ft 224 kts 54°
2026-04-17 18:31 62.94522 26.88831 1142 ft 230 kts 98°
2026-04-17 18:31 62.93768 26.91731 1161 ft 234 kts 158°
2026-04-17 18:31 62.92332 26.90984 1231 ft 213 kts 218°
2026-04-17 18:31 62.91583 26.88570 1047 ft 179 kts 276°
2026-04-17 18:32 62.92232 26.86635 861 ft 150 kts 322°
2026-04-17 18:32 62.92986 26.85220 549 ft 137 kts 319°
2026-04-17 18:32 62.93648 26.83819 377 ft 124 kts 317°
2026-04-17 18:32 62.94213 26.82592 372 ft 122 kts 316°
2026-04-17 18:33 62.95011 26.80855 516 ft 207 kts 316°
2026-04-17 18:33 62.95721 26.79249 1307 ft 176 kts 315°
2026-04-17 18:33 62.96471 26.76737 859 ft 216 kts 282°
2026-04-17 18:33 62.95448 26.75406 736 ft 214 kts 133°
2026-04-17 18:34 62.94688 26.77776 1158 ft 174 kts 125°
2026-04-17 18:34 62.93859 26.79734 943 ft 175 kts 132°
2026-04-17 18:34 62.93051 26.81622 806 ft 169 kts 130°
2026-04-17 18:34 62.92266 26.83458 759 ft 158 kts 129°
2026-04-17 18:35 62.91946 26.85425 795 ft 136 kts 71°
2026-04-17 18:35 62.92724 26.85425 628 ft 147 kts 327°
2026-04-17 18:35 62.93562 26.84005 426 ft 149 kts 316°
2026-04-17 18:35 62.94227 26.82556 370 ft 119 kts 316°
2026-04-17 18:36 62.94701 26.81531 371 ft 75 kts 313°
2026-04-17 18:36 62.95029 26.80831 372 ft 58 kts 316°
2026-04-17 18:36 62.95297 26.80244 371 ft 51 kts 315°
2026-04-17 18:36 62.95437 26.80001 371 ft 0 kts 339°
2026-04-17 18:37 62.95437 26.80000 371 ft 0 kts 242°